sensor_id;sensor_type;location;lat;lon;timestamp;pressure;altitude;pressure_sealevel;temperature;humidity
45991;BME280;31721;41.740;-88.000;2023-04-26T00:01:01;99622.78;;;7.27;40.24
45991;BME280;31721;41.740;-88.000;2023-04-26T00:03:30;99626.08;;;7.24;40.00
45991;BME280;31721;41.740;-88.000;2023-04-26T00:05:59;99627.27;;;7.11;40.29
45991;BME280;31721;41.740;-88.000;2023-04-26T00:08:27;99621.90;;;7.30;40.23
45991;BME280;31721;41.740;-88.000;2023-04-26T00:10:55;99626.25;;;7.09;40.06
45991;BME280;31721;41.740;-88.000;2023-04-26T00:13:24;99626.69;;;7.12;40.04
45991;BME280;31721;41.740;-88.000;2023-04-26T00:15:53;99632.07;;;6.99;40.19
45991;BME280;31721;41.740;-88.000;2023-04-26T00:18:21;99627.91;;;7.04;40.21
45991;BME280;31721;41.740;-88.000;2023-04-26T00:20:49;99630.54;;;6.99;40.11
45991;BME280;31721;41.740;-88.000;2023-04-26T00:23:17;99632.07;;;6.68;39.08
45991;BME280;31721;41.740;-88.000;2023-04-26T00:25:46;99633.37;;;6.80;40.09
45991;BME280;31721;41.740;-88.000;2023-04-26T00:28:14;99636.81;;;6.77;39.87
45991;BME280;31721;41.740;-88.000;2023-04-26T00:30:42;99630.93;;;6.70;39.76
45991;BME280;31721;41.740;-88.000;2023-04-26T00:33:11;99635.15;;;6.70;39.84
45991;BME280;31721;41.740;-88.000;2023-04-26T00:35:40;99635.62;;;6.57;39.96
45991;BME280;31721;41.740;-88.000;2023-04-26T00:38:08;99641.49;;;6.50;40.11
45991;BME280;31721;41.740;-88.000;2023-04-26T00:40:37;99643.81;;;6.66;39.87
45991;BME280;31721;41.740;-88.000;2023-04-26T00:43:05;99646.78;;;6.43;40.16
45991;BME280;31721;41.740;-88.000;2023-04-26T00:45:34;99649.80;;;6.40;40.23
45991;BME280;31721;41.740;-88.000;2023-04-26T00:48:03;99648.60;;;6.25;40.47
45991;BME280;31721;41.740;-88.000;2023-04-26T00:50:32;99648.05;;;6.25;40.38
45991;BME280;31721;41.740;-88.000;2023-04-26T00:53:02;99651.86;;;6.26;40.48
45991;BME280;31721;41.740;-88.000;2023-04-26T00:55:32;99652.62;;;6.22;40.64
45991;BME280;31721;41.740;-88.000;2023-04-26T00:58:00;99656.60;;;6.22;40.81
45991;BME280;31721;41.740;-88.000;2023-04-26T01:00:28;99660.18;;;6.20;40.74
45991;BME280;31721;41.740;-88.000;2023-04-26T01:02:57;99663.48;;;6.09;40.73
45991;BME280;31721;41.740;-88.000;2023-04-26T01:05:27;99665.36;;;6.20;40.83
45991;BME280;31721;41.740;-88.000;2023-04-26T01:07:55;99665.49;;;6.07;40.75
45991;BME280;31721;41.740;-88.000;2023-04-26T01:10:24;99669.35;;;6.00;40.68
45991;BME280;31721;41.740;-88.000;2023-04-26T01:12:52;99669.48;;;6.07;40.83
45991;BME280;31721;41.740;-88.000;2023-04-26T01:15:21;99671.03;;;6.04;40.53
45991;BME280;31721;41.740;-88.000;2023-04-26T01:17:49;99673.46;;;6.04;40.87
45991;BME280;31721;41.740;-88.000;2023-04-26T01:20:17;99677.23;;;6.04;40.66
45991;BME280;31721;41.740;-88.000;2023-04-26T01:22:46;99681.26;;;5.91;40.32
45991;BME280;31721;41.740;-88.000;2023-04-26T01:25:15;99681.65;;;5.94;40.48
45991;BME280;31721;41.740;-88.000;2023-04-26T01:27:43;99684.56;;;5.76;40.31
45991;BME280;31721;41.740;-88.000;2023-04-26T01:30:12;99687.43;;;5.87;40.45
45991;BME280;31721;41.740;-88.000;2023-04-26T01:32:41;99687.17;;;5.86;40.54
45991;BME280;31721;41.740;-88.000;2023-04-26T01:35:09;99685.99;;;5.83;40.39
45991;BME280;31721;41.740;-88.000;2023-04-26T01:37:37;99685.42;;;5.80;40.59
45991;BME280;31721;41.740;-88.000;2023-04-26T01:40:07;99687.49;;;5.75;40.54
45991;BME280;31721;41.740;-88.000;2023-04-26T01:42:36;99691.77;;;5.71;40.73
45991;BME280;31721;41.740;-88.000;2023-04-26T01:45:05;99695.19;;;5.69;40.77
45991;BME280;31721;41.740;-88.000;2023-04-26T01:47:33;99698.35;;;5.66;40.71
45991;BME280;31721;41.740;-88.000;2023-04-26T01:50:02;99699.46;;;5.77;40.61
45991;BME280;31721;41.740;-88.000;2023-04-26T01:52:30;99696.08;;;5.57;40.62
45991;BME280;31721;41.740;-88.000;2023-04-26T01:54:58;99696.39;;;5.67;40.59
45991;BME280;31721;41.740;-88.000;2023-04-26T01:57:27;99695.77;;;5.65;40.64
45991;BME280;31721;41.740;-88.000;2023-04-26T01:59:55;99701.12;;;5.59;40.75
45991;BME280;31721;41.740;-88.000;2023-04-26T02:02:23;99703.43;;;5.56;40.86
45991;BME280;31721;41.740;-88.000;2023-04-26T02:04:51;99704.07;;;5.53;40.86
45991;BME280;31721;41.740;-88.000;2023-04-26T02:07:20;99706.50;;;5.39;40.84
45991;BME280;31721;41.740;-88.000;2023-04-26T02:09:48;99708.60;;;5.31;40.70
45991;BME280;31721;41.740;-88.000;2023-04-26T02:12:16;99707.44;;;5.34;40.83
45991;BME280;31721;41.740;-88.000;2023-04-26T02:14:44;99709.90;;;5.21;40.90
45991;BME280;31721;41.740;-88.000;2023-04-26T02:17:13;99712.06;;;5.16;41.08
45991;BME280;31721;41.740;-88.000;2023-04-26T02:19:41;99712.10;;;5.18;41.04
45991;BME280;31721;41.740;-88.000;2023-04-26T02:22:09;99715.32;;;5.13;41.12
45991;BME280;31721;41.740;-88.000;2023-04-26T02:24:37;99720.58;;;5.09;41.16
45991;BME280;31721;41.740;-88.000;2023-04-26T02:27:05;99721.86;;;5.02;41.05
45991;BME280;31721;41.740;-88.000;2023-04-26T02:29:34;99720.45;;;5.09;41.17
45991;BME280;31721;41.740;-88.000;2023-04-26T02:32:02;99718.81;;;4.86;41.20
45991;BME280;31721;41.740;-88.000;2023-04-26T02:34:30;99718.50;;;4.80;41.25
45991;BME280;31721;41.740;-88.000;2023-04-26T02:36:58;99717.40;;;4.74;41.43
45991;BME280;31721;41.740;-88.000;2023-04-26T02:39:27;99717.98;;;4.70;41.47
45991;BME280;31721;41.740;-88.000;2023-04-26T02:41:55;99720.27;;;4.72;41.61
45991;BME280;31721;41.740;-88.000;2023-04-26T02:44:22;99724.12;;;4.71;41.74
45991;BME280;31721;41.740;-88.000;2023-04-26T02:46:50;99720.86;;;4.74;41.84
45991;BME280;31721;41.740;-88.000;2023-04-26T02:49:19;99719.71;;;4.60;41.90
45991;BME280;31721;41.740;-88.000;2023-04-26T02:51:47;99723.61;;;4.47;41.98
45991;BME280;31721;41.740;-88.000;2023-04-26T02:54:15;99729.48;;;4.48;41.99
45991;BME280;31721;41.740;-88.000;2023-04-26T02:56:43;99738.08;;;4.64;42.12
45991;BME280;31721;41.740;-88.000;2023-04-26T02:59:11;99742.10;;;4.59;41.91
45991;BME280;31721;41.740;-88.000;2023-04-26T03:01:39;99749.44;;;4.43;41.88
45991;BME280;31721;41.740;-88.000;2023-04-26T03:04:07;99750.37;;;4.34;41.85
45991;BME280;31721;41.740;-88.000;2023-04-26T03:06:35;99753.32;;;4.35;42.03
45991;BME280;31721;41.740;-88.000;2023-04-26T03:09:03;99756.25;;;4.31;42.15
45991;BME280;31721;41.740;-88.000;2023-04-26T03:11:31;99757.06;;;4.17;42.08
45991;BME280;31721;41.740;-88.000;2023-04-26T03:14:00;99756.59;;;4.19;42.17
45991;BME280;31721;41.740;-88.000;2023-04-26T03:16:27;99753.35;;;4.15;42.21
45991;BME280;31721;41.740;-88.000;2023-04-26T03:18:55;99755.75;;;4.13;42.32
45991;BME280;31721;41.740;-88.000;2023-04-26T03:21:23;99754.65;;;4.08;42.55
45991;BME280;31721;41.740;-88.000;2023-04-26T03:23:52;99753.75;;;3.97;42.60
45991;BME280;31721;41.740;-88.000;2023-04-26T03:26:19;99754.20;;;4.00;42.71
45991;BME280;31721;41.740;-88.000;2023-04-26T03:28:47;99753.49;;;3.97;42.59
45991;BME280;31721;41.740;-88.000;2023-04-26T03:31:15;99758.25;;;3.96;42.85
45991;BME280;31721;41.740;-88.000;2023-04-26T03:33:43;99756.12;;;3.94;42.78
45991;BME280;31721;41.740;-88.000;2023-04-26T03:36:11;99756.10;;;3.95;42.78
45991;BME280;31721;41.740;-88.000;2023-04-26T03:38:40;99755.58;;;3.90;42.78
45991;BME280;31721;41.740;-88.000;2023-04-26T03:41:08;99758.69;;;3.91;42.94
45991;BME280;31721;41.740;-88.000;2023-04-26T03:43:37;99762.23;;;3.86;42.86
45991;BME280;31721;41.740;-88.000;2023-04-26T03:46:05;99760.56;;;3.87;42.92
45991;BME280;31721;41.740;-88.000;2023-04-26T03:48:32;99761.88;;;3.80;43.17
45991;BME280;31721;41.740;-88.000;2023-04-26T03:51:01;99762.25;;;3.84;42.98
45991;BME280;31721;41.740;-88.000;2023-04-26T03:53:29;99763.23;;;3.77;43.21
45991;BME280;31721;41.740;-88.000;2023-04-26T03:55:57;99761.40;;;3.66;43.11
45991;BME280;31721;41.740;-88.000;2023-04-26T03:58:25;99762.90;;;3.61;43.20
45991;BME280;31721;41.740;-88.000;2023-04-26T04:00:55;99769.34;;;3.58;43.34
45991;BME280;31721;41.740;-88.000;2023-04-26T04:03:23;99770.03;;;3.54;43.39
45991;BME280;31721;41.740;-88.000;2023-04-26T04:05:52;99770.85;;;3.59;43.46
45991;BME280;31721;41.740;-88.000;2023-04-26T04:08:20;99771.19;;;3.47;43.52
45991;BME280;31721;41.740;-88.000;2023-04-26T04:10:49;99768.90;;;3.43;43.58
45991;BME280;31721;41.740;-88.000;2023-04-26T04:13:17;99767.40;;;3.41;43.59
45991;BME280;31721;41.740;-88.000;2023-04-26T04:15:44;99768.18;;;3.36;43.70
45991;BME280;31721;41.740;-88.000;2023-04-26T04:18:12;99770.24;;;3.29;43.69
45991;BME280;31721;41.740;-88.000;2023-04-26T04:20:40;99774.00;;;3.25;43.78
45991;BME280;31721;41.740;-88.000;2023-04-26T04:23:08;99780.71;;;3.20;43.81
45991;BME280;31721;41.740;-88.000;2023-04-26T04:25:37;99781.36;;;3.24;44.01
45991;BME280;31721;41.740;-88.000;2023-04-26T04:28:05;99786.26;;;3.14;44.06
45991;BME280;31721;41.740;-88.000;2023-04-26T04:30:32;99789.93;;;3.09;44.04
45991;BME280;31721;41.740;-88.000;2023-04-26T04:33:00;99792.91;;;3.17;44.11
45991;BME280;31721;41.740;-88.000;2023-04-26T04:35:30;99794.26;;;3.11;44.16
45991;BME280;31721;41.740;-88.000;2023-04-26T04:37:58;99795.10;;;2.98;44.18
45991;BME280;31721;41.740;-88.000;2023-04-26T04:40:26;99797.41;;;3.04;44.42
45991;BME280;31721;41.740;-88.000;2023-04-26T04:42:54;99799.31;;;2.99;44.43
45991;BME280;31721;41.740;-88.000;2023-04-26T04:45:23;99800.69;;;3.06;44.61
45991;BME280;31721;41.740;-88.000;2023-04-26T04:47:51;99802.26;;;2.91;44.63
45991;BME280;31721;41.740;-88.000;2023-04-26T04:50:19;99805.11;;;3.03;44.61
45991;BME280;31721;41.740;-88.000;2023-04-26T04:52:47;99811.02;;;2.87;44.66
45991;BME280;31721;41.740;-88.000;2023-04-26T04:55:15;99811.27;;;2.81;44.82
45991;BME280;31721;41.740;-88.000;2023-04-26T04:57:43;99812.00;;;2.79;44.89
45991;BME280;31721;41.740;-88.000;2023-04-26T05:00:11;99811.79;;;2.68;44.96
45991;BME280;31721;41.740;-88.000;2023-04-26T05:02:40;99812.44;;;2.61;45.15
45991;BME280;31721;41.740;-88.000;2023-04-26T05:05:09;99811.88;;;2.58;45.34
45991;BME280;31721;41.740;-88.000;2023-04-26T05:07:37;99813.70;;;2.56;45.48
45991;BME280;31721;41.740;-88.000;2023-04-26T05:10:06;99813.49;;;2.55;45.50
45991;BME280;31721;41.740;-88.000;2023-04-26T05:12:33;99813.27;;;2.44;45.56
45991;BME280;31721;41.740;-88.000;2023-04-26T05:15:01;99812.59;;;2.53;45.57
45991;BME280;31721;41.740;-88.000;2023-04-26T05:17:29;99815.79;;;2.54;45.46
45991;BME280;31721;41.740;-88.000;2023-04-26T05:19:57;99817.81;;;2.48;45.69
45991;BME280;31721;41.740;-88.000;2023-04-26T05:22:26;99818.14;;;2.51;45.83
45991;BME280;31721;41.740;-88.000;2023-04-26T05:24:55;99816.77;;;2.50;45.78
45991;BME280;31721;41.740;-88.000;2023-04-26T05:27:23;99817.09;;;2.49;45.69
45991;BME280;31721;41.740;-88.000;2023-04-26T05:29:51;99817.52;;;2.38;45.57
45991;BME280;31721;41.740;-88.000;2023-04-26T05:32:19;99814.27;;;2.34;45.75
45991;BME280;31721;41.740;-88.000;2023-04-26T05:34:47;99812.34;;;2.24;46.04
45991;BME280;31721;41.740;-88.000;2023-04-26T05:37:14;99818.10;;;2.21;46.17
45991;BME280;31721;41.740;-88.000;2023-04-26T05:39:42;99818.37;;;2.28;46.29
45991;BME280;31721;41.740;-88.000;2023-04-26T05:42:11;99816.82;;;2.15;46.30
45991;BME280;31721;41.740;-88.000;2023-04-26T05:44:39;99811.66;;;2.07;46.22
45991;BME280;31721;41.740;-88.000;2023-04-26T05:47:08;99809.31;;;2.03;46.40
45991;BME280;31721;41.740;-88.000;2023-04-26T05:49:36;99808.60;;;2.07;46.49
45991;BME280;31721;41.740;-88.000;2023-04-26T05:52:05;99809.87;;;1.91;46.43
45991;BME280;31721;41.740;-88.000;2023-04-26T05:54:33;99812.95;;;1.98;46.78
45991;BME280;31721;41.740;-88.000;2023-04-26T05:57:01;99811.99;;;2.03;46.82
45991;BME280;31721;41.740;-88.000;2023-04-26T05:59:29;99810.63;;;1.99;46.78
45991;BME280;31721;41.740;-88.000;2023-04-26T06:02:02;99808.83;;;1.90;46.93
45991;BME280;31721;41.740;-88.000;2023-04-26T06:04:30;99806.92;;;1.89;46.92
45991;BME280;31721;41.740;-88.000;2023-04-26T06:06:58;99812.75;;;1.96;47.15
45991;BME280;31721;41.740;-88.000;2023-04-26T06:09:26;99815.29;;;1.87;47.11
45991;BME280;31721;41.740;-88.000;2023-04-26T06:11:53;99813.51;;;1.89;47.06
45991;BME280;31721;41.740;-88.000;2023-04-26T06:14:21;99814.63;;;1.77;47.17
45991;BME280;31721;41.740;-88.000;2023-04-26T06:16:49;99812.42;;;1.79;47.00
45991;BME280;31721;41.740;-88.000;2023-04-26T06:19:17;99810.49;;;1.84;47.26
45991;BME280;31721;41.740;-88.000;2023-04-26T06:21:45;99810.57;;;1.72;47.36
45991;BME280;31721;41.740;-88.000;2023-04-26T06:24:14;99805.20;;;1.66;47.43
45991;BME280;31721;41.740;-88.000;2023-04-26T06:26:42;99798.74;;;1.69;47.48
45991;BME280;31721;41.740;-88.000;2023-04-26T06:29:09;99792.44;;;1.66;47.67
45991;BME280;31721;41.740;-88.000;2023-04-26T06:31:37;99793.84;;;1.53;47.76
45991;BME280;31721;41.740;-88.000;2023-04-26T06:34:04;99791.96;;;1.56;47.96
45991;BME280;31721;41.740;-88.000;2023-04-26T06:36:32;99791.86;;;1.58;48.01
45991;BME280;31721;41.740;-88.000;2023-04-26T06:39:00;99790.77;;;1.61;47.89
45991;BME280;31721;41.740;-88.000;2023-04-26T06:41:28;99790.69;;;1.73;47.79
45991;BME280;31721;41.740;-88.000;2023-04-26T06:43:55;99793.22;;;1.65;47.77
45991;BME280;31721;41.740;-88.000;2023-04-26T06:46:23;99791.79;;;1.63;47.69
45991;BME280;31721;41.740;-88.000;2023-04-26T06:48:52;99790.20;;;1.72;47.80
45991;BME280;31721;41.740;-88.000;2023-04-26T06:51:20;99792.62;;;1.71;47.70
45991;BME280;31721;41.740;-88.000;2023-04-26T06:53:48;99791.04;;;1.70;48.02
45991;BME280;31721;41.740;-88.000;2023-04-26T06:56:16;99789.63;;;1.65;47.88
45991;BME280;31721;41.740;-88.000;2023-04-26T06:58:57;99788.57;;;1.62;47.92
45991;BME280;31721;41.740;-88.000;2023-04-26T07:01:27;99786.43;;;1.51;48.25
45991;BME280;31721;41.740;-88.000;2023-04-26T07:03:55;99785.71;;;1.50;48.29
45991;BME280;31721;41.740;-88.000;2023-04-26T07:06:24;99784.75;;;1.45;48.30
45991;BME280;31721;41.740;-88.000;2023-04-26T07:08:53;99780.05;;;1.55;48.64
45991;BME280;31721;41.740;-88.000;2023-04-26T07:11:21;99778.89;;;1.53;48.69
45991;BME280;31721;41.740;-88.000;2023-04-26T07:13:49;99777.71;;;1.41;48.77
45991;BME280;31721;41.740;-88.000;2023-04-26T07:16:17;99773.77;;;1.41;48.81
45991;BME280;31721;41.740;-88.000;2023-04-26T07:18:45;99769.54;;;1.39;49.03
45991;BME280;31721;41.740;-88.000;2023-04-26T07:21:12;99771.76;;;1.52;48.90
45991;BME280;31721;41.740;-88.000;2023-04-26T07:23:40;99773.48;;;1.55;48.98
45991;BME280;31721;41.740;-88.000;2023-04-26T07:26:10;99772.94;;;1.49;48.90
45991;BME280;31721;41.740;-88.000;2023-04-26T07:28:38;99775.02;;;1.54;48.88
45991;BME280;31721;41.740;-88.000;2023-04-26T07:31:05;99771.87;;;1.55;48.86
45991;BME280;31721;41.740;-88.000;2023-04-26T07:33:33;99771.88;;;1.61;49.04
45991;BME280;31721;41.740;-88.000;2023-04-26T07:36:01;99775.35;;;1.62;48.88
45991;BME280;31721;41.740;-88.000;2023-04-26T07:38:29;99775.43;;;1.70;48.80
45991;BME280;31721;41.740;-88.000;2023-04-26T07:40:56;99775.86;;;1.71;49.11
45991;BME280;31721;41.740;-88.000;2023-04-26T07:43:25;99774.50;;;1.54;49.29
45991;BME280;31721;41.740;-88.000;2023-04-26T07:45:53;99774.30;;;1.55;49.42
45991;BME280;31721;41.740;-88.000;2023-04-26T07:48:20;99772.59;;;1.52;49.56
45991;BME280;31721;41.740;-88.000;2023-04-26T07:50:48;99767.36;;;1.32;49.86
45991;BME280;31721;41.740;-88.000;2023-04-26T07:53:15;99763.82;;;1.37;50.04
45991;BME280;31721;41.740;-88.000;2023-04-26T07:55:43;99764.62;;;1.21;49.92
45991;BME280;31721;41.740;-88.000;2023-04-26T07:58:11;99763.48;;;1.23;49.96
45991;BME280;31721;41.740;-88.000;2023-04-26T08:00:39;99769.37;;;1.33;50.63
45991;BME280;31721;41.740;-88.000;2023-04-26T08:03:07;99770.17;;;1.40;51.09
45991;BME280;31721;41.740;-88.000;2023-04-26T08:05:35;99774.02;;;1.46;50.90
45991;BME280;31721;41.740;-88.000;2023-04-26T08:08:03;99776.70;;;1.54;50.83
45991;BME280;31721;41.740;-88.000;2023-04-26T08:10:31;99777.51;;;1.47;50.68
45991;BME280;31721;41.740;-88.000;2023-04-26T08:12:59;99775.24;;;1.59;50.98
45991;BME280;31721;41.740;-88.000;2023-04-26T08:15:26;99775.03;;;1.54;50.96
45991;BME280;31721;41.740;-88.000;2023-04-26T08:17:54;99775.97;;;1.55;51.12
45991;BME280;31721;41.740;-88.000;2023-04-26T08:20:21;99777.44;;;1.66;51.40
45991;BME280;31721;41.740;-88.000;2023-04-26T08:22:49;99780.16;;;1.62;51.12
45991;BME280;31721;41.740;-88.000;2023-04-26T08:25:21;99778.18;;;1.56;51.57
45991;BME280;31721;41.740;-88.000;2023-04-26T08:27:49;99782.33;;;1.49;51.51
45991;BME280;31721;41.740;-88.000;2023-04-26T08:30:18;99783.02;;;1.52;51.70
45991;BME280;31721;41.740;-88.000;2023-04-26T08:32:46;99780.97;;;1.62;51.56
45991;BME280;31721;41.740;-88.000;2023-04-26T08:35:13;99779.60;;;1.68;51.73
45991;BME280;31721;41.740;-88.000;2023-04-26T08:37:41;99781.86;;;1.63;51.66
45991;BME280;31721;41.740;-88.000;2023-04-26T08:40:09;99782.31;;;1.66;51.53
45991;BME280;31721;41.740;-88.000;2023-04-26T08:42:39;99780.68;;;1.67;51.69
45991;BME280;31721;41.740;-88.000;2023-04-26T08:45:08;99778.22;;;1.64;51.49
45991;BME280;31721;41.740;-88.000;2023-04-26T08:47:42;99776.82;;;1.59;51.85
45991;BME280;31721;41.740;-88.000;2023-04-26T08:50:12;99782.83;;;1.69;51.50
45991;BME280;31721;41.740;-88.000;2023-04-26T08:52:41;99783.96;;;1.67;51.78
45991;BME280;31721;41.740;-88.000;2023-04-26T08:55:10;99780.86;;;1.72;51.74
45991;BME280;31721;41.740;-88.000;2023-04-26T08:57:38;99776.46;;;1.56;51.70
45991;BME280;31721;41.740;-88.000;2023-04-26T09:00:07;99777.79;;;1.66;52.00
45991;BME280;31721;41.740;-88.000;2023-04-26T09:02:35;99778.57;;;1.61;51.63
45991;BME280;31721;41.740;-88.000;2023-04-26T09:05:03;99780.45;;;1.65;51.84
45991;BME280;31721;41.740;-88.000;2023-04-26T09:07:37;99781.45;;;1.68;51.99
45991;BME280;31721;41.740;-88.000;2023-04-26T09:10:07;99783.11;;;1.60;51.66
45991;BME280;31721;41.740;-88.000;2023-04-26T09:12:35;99781.98;;;1.79;51.70
45991;BME280;31721;41.740;-88.000;2023-04-26T09:15:04;99783.49;;;1.69;51.65
45991;BME280;31721;41.740;-88.000;2023-04-26T09:17:34;99782.13;;;1.79;51.86
45991;BME280;31721;41.740;-88.000;2023-04-26T09:20:19;99782.30;;;1.71;51.79
45991;BME280;31721;41.740;-88.000;2023-04-26T09:22:47;99784.02;;;1.62;51.89
45991;BME280;31721;41.740;-88.000;2023-04-26T09:25:17;99783.81;;;1.67;51.78
45991;BME280;31721;41.740;-88.000;2023-04-26T09:27:46;99779.79;;;1.79;51.92
45991;BME280;31721;41.740;-88.000;2023-04-26T09:30:16;99776.90;;;1.92;51.90
45991;BME280;31721;41.740;-88.000;2023-04-26T09:32:46;99779.34;;;1.79;52.06
45991;BME280;31721;41.740;-88.000;2023-04-26T09:35:31;99783.67;;;1.86;51.83
45991;BME280;31721;41.740;-88.000;2023-04-26T09:38:01;99789.92;;;1.67;51.97
45991;BME280;31721;41.740;-88.000;2023-04-26T09:40:30;99789.29;;;1.81;52.01
45991;BME280;31721;41.740;-88.000;2023-04-26T09:43:01;99790.20;;;1.77;51.89
45991;BME280;31721;41.740;-88.000;2023-04-26T09:45:30;99789.63;;;1.79;51.88
45991;BME280;31721;41.740;-88.000;2023-04-26T09:48:16;99785.17;;;1.82;51.89
45991;BME280;31721;41.740;-88.000;2023-04-26T09:50:45;99783.15;;;1.93;51.98
45991;BME280;31721;41.740;-88.000;2023-04-26T09:53:25;99788.18;;;1.86;51.80
45991;BME280;31721;41.740;-88.000;2023-04-26T09:55:54;99791.66;;;1.98;51.88
45991;BME280;31721;41.740;-88.000;2023-04-26T09:58:22;99793.08;;;2.10;51.76
45991;BME280;31721;41.740;-88.000;2023-04-26T10:00:50;99797.32;;;1.95;51.91
45991;BME280;31721;41.740;-88.000;2023-04-26T10:03:19;99796.79;;;1.85;51.48
45991;BME280;31721;41.740;-88.000;2023-04-26T10:05:47;99797.11;;;1.86;51.83
45991;BME280;31721;41.740;-88.000;2023-04-26T10:08:15;99795.34;;;1.94;51.83
45991;BME280;31721;41.740;-88.000;2023-04-26T10:10:43;99793.95;;;1.88;51.88
45991;BME280;31721;41.740;-88.000;2023-04-26T10:13:11;99793.72;;;1.91;51.90
45991;BME280;31721;41.740;-88.000;2023-04-26T10:15:39;99797.12;;;2.06;51.74
45991;BME280;31721;41.740;-88.000;2023-04-26T10:18:08;99800.27;;;2.00;51.83
45991;BME280;31721;41.740;-88.000;2023-04-26T10:20:40;99803.95;;;2.05;51.81
45991;BME280;31721;41.740;-88.000;2023-04-26T10:23:17;99810.39;;;2.13;51.71
45991;BME280;31721;41.740;-88.000;2023-04-26T10:25:46;99812.89;;;2.05;51.68
45991;BME280;31721;41.740;-88.000;2023-04-26T10:28:14;99818.07;;;2.04;51.52
45991;BME280;31721;41.740;-88.000;2023-04-26T10:31:00;99819.78;;;2.03;51.52
45991;BME280;31721;41.740;-88.000;2023-04-26T10:33:27;99822.31;;;1.98;51.51
45991;BME280;31721;41.740;-88.000;2023-04-26T10:36:12;99826.13;;;2.12;51.48
45991;BME280;31721;41.740;-88.000;2023-04-26T10:38:41;99828.91;;;1.95;51.36
45991;BME280;31721;41.740;-88.000;2023-04-26T10:41:41;99830.93;;;2.03;51.50
45991;BME280;31721;41.740;-88.000;2023-04-26T10:44:42;99829.94;;;2.01;51.47
45991;BME280;31721;41.740;-88.000;2023-04-26T10:47:21;99832.17;;;1.92;51.56
45991;BME280;31721;41.740;-88.000;2023-04-26T10:49:50;99832.31;;;2.00;51.45
45991;BME280;31721;41.740;-88.000;2023-04-26T10:52:18;99835.47;;;1.97;51.41
45991;BME280;31721;41.740;-88.000;2023-04-26T10:54:48;99839.43;;;1.88;51.48
45991;BME280;31721;41.740;-88.000;2023-04-26T10:57:18;99836.85;;;2.02;51.62
45991;BME280;31721;41.740;-88.000;2023-04-26T11:00:37;99842.01;;;1.93;51.46
45991;BME280;31721;41.740;-88.000;2023-04-26T11:03:08;99844.38;;;1.87;51.40
45991;BME280;31721;41.740;-88.000;2023-04-26T11:05:40;99843.01;;;1.90;51.63
45991;BME280;31721;41.740;-88.000;2023-04-26T11:08:16;99847.61;;;1.95;51.72
45991;BME280;31721;41.740;-88.000;2023-04-26T11:10:49;99844.32;;;1.81;51.74
45991;BME280;31721;41.740;-88.000;2023-04-26T11:13:18;99848.26;;;1.88;51.78
45991;BME280;31721;41.740;-88.000;2023-04-26T11:15:46;99850.89;;;1.88;51.86
45991;BME280;31721;41.740;-88.000;2023-04-26T11:18:18;99854.53;;;1.96;51.81
45991;BME280;31721;41.740;-88.000;2023-04-26T11:20:46;99856.46;;;1.88;51.81
45991;BME280;31721;41.740;-88.000;2023-04-26T11:23:14;99858.09;;;1.89;51.90
45991;BME280;31721;41.740;-88.000;2023-04-26T11:25:41;99862.36;;;2.02;51.95
45991;BME280;31721;41.740;-88.000;2023-04-26T11:28:09;99864.98;;;1.88;52.05
45991;BME280;31721;41.740;-88.000;2023-04-26T11:30:37;99868.59;;;2.01;52.12
45991;BME280;31721;41.740;-88.000;2023-04-26T11:33:05;99872.64;;;2.04;52.04
45991;BME280;31721;41.740;-88.000;2023-04-26T11:35:34;99877.08;;;1.98;52.10
45991;BME280;31721;41.740;-88.000;2023-04-26T11:38:04;99879.31;;;2.04;52.28
45991;BME280;31721;41.740;-88.000;2023-04-26T11:40:33;99882.17;;;2.09;52.50
45991;BME280;31721;41.740;-88.000;2023-04-26T11:43:01;99883.52;;;2.11;52.66
45991;BME280;31721;41.740;-88.000;2023-04-26T11:45:32;99887.46;;;2.21;52.69
45991;BME280;31721;41.740;-88.000;2023-04-26T11:48:01;99896.47;;;2.23;52.76
45991;BME280;31721;41.740;-88.000;2023-04-26T11:50:32;99899.58;;;2.30;53.02
45991;BME280;31721;41.740;-88.000;2023-04-26T11:53:02;99902.87;;;2.40;53.32
45991;BME280;31721;41.740;-88.000;2023-04-26T11:55:32;99899.92;;;2.52;53.35
45991;BME280;31721;41.740;-88.000;2023-04-26T11:58:08;99899.92;;;2.61;53.42
45991;BME280;31721;41.740;-88.000;2023-04-26T12:00:36;99904.04;;;2.67;53.63
45991;BME280;31721;41.740;-88.000;2023-04-26T12:03:05;99911.54;;;2.72;53.89
45991;BME280;31721;41.740;-88.000;2023-04-26T12:05:33;99913.13;;;2.85;53.65
45991;BME280;31721;41.740;-88.000;2023-04-26T12:08:01;99916.76;;;2.99;53.86
45991;BME280;31721;41.740;-88.000;2023-04-26T12:10:33;99925.07;;;3.12;53.86
45991;BME280;31721;41.740;-88.000;2023-04-26T12:13:02;99924.29;;;3.16;53.82
45991;BME280;31721;41.740;-88.000;2023-04-26T12:15:32;99926.52;;;3.27;53.87
45991;BME280;31721;41.740;-88.000;2023-04-26T12:18:06;99922.15;;;3.52;54.03
45991;BME280;31721;41.740;-88.000;2023-04-26T12:20:35;99917.91;;;3.64;54.15
45991;BME280;31721;41.740;-88.000;2023-04-26T12:23:05;99917.30;;;3.63;53.93
45991;BME280;31721;41.740;-88.000;2023-04-26T12:25:35;99917.26;;;3.78;53.90
45991;BME280;31721;41.740;-88.000;2023-04-26T12:28:04;99921.78;;;3.89;54.09
45991;BME280;31721;41.740;-88.000;2023-04-26T12:30:33;99923.24;;;4.00;54.00
45991;BME280;31721;41.740;-88.000;2023-04-26T12:33:01;99927.02;;;4.00;54.39
45991;BME280;31721;41.740;-88.000;2023-04-26T12:35:30;99928.34;;;4.04;54.08
45991;BME280;31721;41.740;-88.000;2023-04-26T12:37:59;99929.32;;;4.34;54.39
45991;BME280;31721;41.740;-88.000;2023-04-26T12:40:28;99929.62;;;4.56;54.29
45991;BME280;31721;41.740;-88.000;2023-04-26T12:42:57;99928.79;;;4.68;54.17
45991;BME280;31721;41.740;-88.000;2023-04-26T12:45:25;99927.91;;;4.66;54.00
45991;BME280;31721;41.740;-88.000;2023-04-26T12:47:53;99926.17;;;4.59;54.37
45991;BME280;31721;41.740;-88.000;2023-04-26T12:50:21;99924.18;;;4.84;54.10
45991;BME280;31721;41.740;-88.000;2023-04-26T12:52:50;99923.79;;;4.96;54.15
45991;BME280;31721;41.740;-88.000;2023-04-26T12:55:18;99922.97;;;5.10;53.66
45991;BME280;31721;41.740;-88.000;2023-04-26T12:57:46;99929.05;;;5.19;53.85
45991;BME280;31721;41.740;-88.000;2023-04-26T13:00:16;99924.02;;;5.30;53.57